Pellston Regional Airport of Emmet County Airport Pellston US
ICAO: KPLN
IATA: PLN
Category: Medium
Scheduled Services: Yes

Elevation: 721 ft
TransAlt. 18000 ft.

Airport Communications:
ASOS:119.025
MINNEAPOLIS CNTR:134.6
LANSING RDO:122.2
CTAF/UNICOM:123

KPLN Zoom In..

Runways:

(A) RW 05 length 5401 ft width 150 ft
---- / hdg 51

(B) RW 14 length 6513 ft width 150 ft
---- / hdg 141

(C) RW 23 length 5401 ft width 150 ft
---- / hdg 231

(D) RW 32 length 6513 ft width 150 ft
ILS 111.30 / hdg 321

Location; KPLN
Day. 23 / Time. 21.54 Zulu
* Altimeter: 29.82
* Temperature: -06° c. -21.2°f.
* Wind from: 310° Speed 13 kn.
Dewpoint: -08° c.
Visibility: 10 Statute Miles.
Clouds: Broken 1600 ft.
Clouds: Overcast 6500 ft.

KPLN 232154Z AUTO 31013KT 10SM BKN016 OVC065 M06/M08 A2982 RMK AO2 SLP109 T10561083


Wind From 310°
Speed 13 kn.

YouTube Music Video
 
jpsmedia.com for Web Design  worldairports.se 2018   terms of use